sensor_id;sensor_type;location;lat;lon;timestamp;pressure;altitude;pressure_sealevel;temperature;humidity
53671;BME280;39571;48.612;8.088;2023-10-13T08:18:19;99625.28;;;32.06;38.12
53671;BME280;39571;48.612;8.088;2023-10-13T08:21:06;99623.56;;;33.46;35.49
53671;BME280;39571;48.612;8.088;2023-10-13T08:23:32;99632.91;;;32.86;34.81
53671;BME280;39571;48.612;8.088;2023-10-13T08:26:16;99622.44;;;34.28;34.31
53671;BME280;39571;48.612;8.088;2023-10-13T08:37:40;99613.09;;;36.35;30.36
53671;BME280;39571;48.612;8.088;2023-10-13T08:40:17;99609.97;;;37.61;29.79
53671;BME280;39571;48.612;8.088;2023-10-13T08:43:06;99618.25;;;37.74;28.56
53671;BME280;39571;48.612;8.088;2023-10-13T08:58:08;99591.50;;;39.79;25.94
53671;BME280;39571;48.612;8.088;2023-10-13T09:00:45;99588.38;;;40.59;25.82
53671;BME280;39571;48.612;8.088;2023-10-13T09:03:21;99588.09;;;40.23;25.42
53671;BME280;39571;48.612;8.088;2023-10-13T09:06:12;99586.09;;;40.56;25.60
53671;BME280;39571;48.612;8.088;2023-10-13T09:08:40;99583.34;;;40.56;24.90
53671;BME280;39571;48.612;8.088;2023-10-13T09:11:25;99585.81;;;36.65;26.53
53671;BME280;39571;48.612;8.088;2023-10-13T09:13:51;99585.72;;;34.40;28.36
53671;BME280;39571;48.612;8.088;2023-10-13T09:16:17;99589.63;;;33.26;30.96
53671;BME280;39571;48.612;8.088;2023-10-13T09:19:06;99589.50;;;31.68;31.82
53671;BME280;39571;48.612;8.088;2023-10-13T09:21:41;99587.72;;;31.41;32.37
53671;BME280;39571;48.612;8.088;2023-10-13T09:24:11;99582.25;;;31.51;32.08
53671;BME280;39571;48.612;8.088;2023-10-13T09:26:55;99583.44;;;31.74;32.08
53671;BME280;39571;48.612;8.088;2023-10-13T09:29:22;99590.78;;;31.03;32.78
53671;BME280;39571;48.612;8.088;2023-10-13T09:31:59;99579.25;;;31.01;32.48
53671;BME280;39571;48.612;8.088;2023-10-13T09:34:25;99575.34;;;31.57;33.56
53671;BME280;39571;48.612;8.088;2023-10-13T09:36:57;99574.50;;;32.49;32.15
53671;BME280;39571;48.612;8.088;2023-10-13T09:39:26;99569.94;;;33.32;31.52
53671;BME280;39571;48.612;8.088;2023-10-13T09:41:56;99568.75;;;33.43;31.62
53671;BME280;39571;48.612;8.088;2023-10-13T09:44:25;99564.50;;;33.24;31.95
53671;BME280;39571;48.612;8.088;2023-10-13T09:47:00;99565.91;;;33.20;30.26
53671;BME280;39571;48.612;8.088;2023-10-13T09:49:39;99566.84;;;33.84;29.92
53671;BME280;39571;48.612;8.088;2023-10-13T09:52:15;99561.03;;;34.81;28.75
53671;BME280;39571;48.612;8.088;2023-10-13T09:54:56;99547.50;;;34.95;28.07
53671;BME280;39571;48.612;8.088;2023-10-13T09:57:35;99542.59;;;36.18;27.97
53671;BME280;39571;48.612;8.088;2023-10-13T10:00:27;99543.16;;;35.98;27.54
53671;BME280;39571;48.612;8.088;2023-10-13T10:03:00;99534.53;;;35.95;27.22
53671;BME280;39571;48.612;8.088;2023-10-13T10:05:41;99542.69;;;36.24;26.71
53671;BME280;39571;48.612;8.088;2023-10-13T10:08:06;99538.00;;;35.74;27.33
53671;BME280;39571;48.612;8.088;2023-10-13T10:11:12;99540.69;;;34.99;27.22
53671;BME280;39571;48.612;8.088;2023-10-13T10:16:50;99533.84;;;34.50;28.47
53671;BME280;39571;48.612;8.088;2023-10-13T10:19:25;99530.56;;;33.69;28.48
53671;BME280;39571;48.612;8.088;2023-10-13T10:22:01;99529.94;;;33.26;28.99
53671;BME280;39571;48.612;8.088;2023-10-13T10:24:30;99523.16;;;33.22;29.47
53671;BME280;39571;48.612;8.088;2023-10-13T10:26:56;99523.78;;;32.68;29.84
53671;BME280;39571;48.612;8.088;2023-10-13T10:29:21;99518.03;;;32.71;31.10
53671;BME280;39571;48.612;8.088;2023-10-13T10:31:47;99516.94;;;32.47;29.91
53671;BME280;39571;48.612;8.088;2023-10-13T10:34:14;99520.19;;;32.17;30.72
53671;BME280;39571;48.612;8.088;2023-10-13T10:36:46;99520.41;;;31.90;30.62
53671;BME280;39571;48.612;8.088;2023-10-13T10:39:11;99514.00;;;31.65;31.27
53671;BME280;39571;48.612;8.088;2023-10-13T10:41:37;99522.75;;;31.51;31.54
53671;BME280;39571;48.612;8.088;2023-10-13T10:44:19;99513.19;;;31.47;32.27
53671;BME280;39571;48.612;8.088;2023-10-13T10:47:15;99515.59;;;30.89;32.42
53671;BME280;39571;48.612;8.088;2023-10-13T10:50:04;99506.78;;;30.87;32.93
53671;BME280;39571;48.612;8.088;2023-10-13T10:52:45;99507.56;;;30.79;33.28
53671;BME280;39571;48.612;8.088;2023-10-13T10:55:12;99509.88;;;30.56;32.72
53671;BME280;39571;48.612;8.088;2023-10-13T10:57:39;99502.78;;;30.28;33.75
53671;BME280;39571;48.612;8.088;2023-10-13T11:00:18;99494.81;;;30.09;34.15
53671;BME280;39571;48.612;8.088;2023-10-13T11:02:53;99494.03;;;29.99;33.95
53671;BME280;39571;48.612;8.088;2023-10-13T11:05:20;99502.72;;;29.83;34.22
53671;BME280;39571;48.612;8.088;2023-10-13T11:07:46;99495.91;;;29.79;33.65
53671;BME280;39571;48.612;8.088;2023-10-13T11:10:18;99482.16;;;29.73;34.16
53671;BME280;39571;48.612;8.088;2023-10-13T11:12:56;99477.72;;;29.44;34.43
53671;BME280;39571;48.612;8.088;2023-10-13T11:15:45;99473.47;;;29.42;34.63
53671;BME280;39571;48.612;8.088;2023-10-13T11:18:11;99476.50;;;29.66;35.23
53671;BME280;39571;48.612;8.088;2023-10-13T11:20:59;99470.22;;;29.85;34.69
53671;BME280;39571;48.612;8.088;2023-10-13T11:23:24;99465.97;;;29.73;34.47
53671;BME280;39571;48.612;8.088;2023-10-13T11:26:00;99463.44;;;29.71;34.55
53671;BME280;39571;48.612;8.088;2023-10-13T11:28:25;99459.25;;;29.86;34.41
53671;BME280;39571;48.612;8.088;2023-10-13T11:30:55;99456.28;;;29.80;34.87
53671;BME280;39571;48.612;8.088;2023-10-13T11:33:25;99460.56;;;29.82;36.20
53671;BME280;39571;48.612;8.088;2023-10-13T11:35:54;99449.50;;;29.85;34.97
53671;BME280;39571;48.612;8.088;2023-10-13T11:41:04;99444.69;;;29.70;35.23
53671;BME280;39571;48.612;8.088;2023-10-13T11:43:52;99437.38;;;29.52;34.49
53671;BME280;39571;48.612;8.088;2023-10-13T11:46:24;99440.81;;;29.54;34.88
53671;BME280;39571;48.612;8.088;2023-10-13T11:49:06;99428.59;;;29.50;35.29
53671;BME280;39571;48.612;8.088;2023-10-13T11:51:38;99418.31;;;29.64;35.50
53671;BME280;39571;48.612;8.088;2023-10-13T11:54:03;99419.50;;;29.51;35.04
53671;BME280;39571;48.612;8.088;2023-10-13T11:56:29;99425.50;;;29.45;35.49
53671;BME280;39571;48.612;8.088;2023-10-13T11:58:54;99421.28;;;29.33;35.38
53671;BME280;39571;48.612;8.088;2023-10-13T12:01:26;99421.28;;;29.33;34.72
53671;BME280;39571;48.612;8.088;2023-10-13T12:04:11;99417.59;;;29.25;35.54
